METAR Data
IDs: Format: Raw Decoded Include TAF

Data at: 0630 UTC 08 May 2021

NZWN 080600Z AUTO 36014KT 9999 SCT041/// SCT049/// 17/12 Q1026 NOSIG
NZWN 080530Z AUTO 36015KT 9999 BKN039/// 17/12 Q1027 NOSIG
NZWN 080500Z AUTO 01013KT 9999 BKN043/// 17/12 Q1027 NOSIG
NZWN 080430Z AUTO 36015KT 9999 BKN049/// 18/12 Q1027
NZWN 080400Z AUTO 36015KT 9999 FEW045/// SCT055/// 17/12 Q1027 NOSIG

TAF NZWN 080501Z 0806/0906 36018KT 9999 FEW025
  FM080700 36018G30KT 9999 BKN025
  TEMPO 0814/0821 7000 SHRA BKN014
  BECMG 0819/0821 36020G40KT BKN012
  TEMPO 0821/0906 4000 RA